createdAt,value
2022-10-23T00:01:18.125Z,14.90
2022-10-23T00:06:13.757Z,12.40
2022-10-23T00:08:41.344Z,14.10
2022-10-23T00:11:09.744Z,14.40
2022-10-23T00:16:04.344Z,14.70
2022-10-23T00:18:31.371Z,13.80
2022-10-23T00:25:52.996Z,14.40
2022-10-23T00:28:20.209Z,14.80
2022-10-23T00:30:47.239Z,14.70
2022-10-23T00:35:43.307Z,13.10
2022-10-23T00:38:12.517Z,13.50
2022-10-23T00:40:42.335Z,13.50
2022-10-23T00:43:24.860Z,12.30
2022-10-23T00:48:19.754Z,13.50
2022-10-23T00:50:47.768Z,13.50
2022-10-23T00:53:16.651Z,13.30
2022-10-23T00:55:46.779Z,13.40
2022-10-23T00:58:17.181Z,13.40
2022-10-23T01:03:11.558Z,12.40
2022-10-23T01:06:15.874Z,13.40
2022-10-23T01:08:51.460Z,14.60
2022-10-23T01:11:37.750Z,13.40
2022-10-23T01:14:22.654Z,14.70
2022-10-23T01:17:01.797Z,14.40
2022-10-23T01:20:14.553Z,12.50
2022-10-23T01:23:12.244Z,13.30
2022-10-23T01:26:07.239Z,14.50
2022-10-23T01:28:48.434Z,13.10
2022-10-23T01:31:20.631Z,14.30
2022-10-23T01:33:52.491Z,12.30
2022-10-23T01:36:28.194Z,13.20
2022-10-23T01:39:07.926Z,13.30
2022-10-23T01:44:13.896Z,12.10
2022-10-23T01:46:43.731Z,13.20
2022-10-23T01:49:14.010Z,13.20
2022-10-23T01:51:46.565Z,13.20
2022-10-23T01:54:16.429Z,13.10
2022-10-23T01:56:48.949Z,13.20
2022-10-23T01:59:22.862Z,13.20
2022-10-23T02:01:52.460Z,13.20
2022-10-23T02:04:28.691Z,12.70
2022-10-23T02:06:55.689Z,11.90
2022-10-23T02:09:22.693Z,12.80
2022-10-23T02:12:07.262Z,14.50
2022-10-23T02:14:58.704Z,13.20
2022-10-23T02:17:47.468Z,13.10
2022-10-23T02:20:41.187Z,13.10
2022-10-23T02:23:29.282Z,11.80
2022-10-23T02:26:03.706Z,13.70
2022-10-23T02:28:45.364Z,13.00
2022-10-23T02:31:16.056Z,13.00
2022-10-23T02:33:44.911Z,13.00
2022-10-23T02:38:42.420Z,13.20
2022-10-23T02:41:33.462Z,13.00
2022-10-23T02:44:06.892Z,13.40
2022-10-23T02:47:10.424Z,13.00
2022-10-23T02:49:53.840Z,14.30
2022-10-23T02:55:16.505Z,13.00
2022-10-23T02:58:14.682Z,12.30
2022-10-23T03:00:49.621Z,13.00
2022-10-23T03:03:29.916Z,12.90
2022-10-23T03:08:25.387Z,12.90
2022-10-23T03:18:15.638Z,14.40
2022-10-23T03:30:49.536Z,13.60
2022-10-23T03:33:16.411Z,14.40
2022-10-23T03:40:43.228Z,13.00
2022-10-23T03:48:07.735Z,13.00
2022-10-23T03:50:35.922Z,13.80
2022-10-23T04:02:51.730Z,13.20
2022-10-23T04:20:13.256Z,14.00
2022-10-23T04:22:40.380Z,13.70
2022-10-23T04:30:03.635Z,12.30
2022-10-23T04:39:53.529Z,13.90
2022-10-23T04:47:15.229Z,12.00
2022-10-23T04:52:57.037Z,13.30
2022-10-23T04:55:49.785Z,13.20
2022-10-23T05:01:03.715Z,14.40
2022-10-23T05:03:30.809Z,12.00
2022-10-23T05:11:27.784Z,14.40
2022-10-23T05:16:35.798Z,15.80
2022-10-23T05:19:03.997Z,14.60
2022-10-23T05:21:34.633Z,13.70
2022-10-23T05:24:03.026Z,13.20
2022-10-23T05:26:32.013Z,10.90
2022-10-23T05:31:32.768Z,13.20
2022-10-23T05:34:07.693Z,13.90
2022-10-23T05:36:41.542Z,13.60
2022-10-23T05:39:08.793Z,15.10
2022-10-23T05:46:49.210Z,12.70
2022-10-23T05:54:51.891Z,14.60
2022-10-23T06:00:34.528Z,14.60
2022-10-23T06:03:21.497Z,12.70
2022-10-23T06:05:52.366Z,14.70
2022-10-23T06:08:24.712Z,13.90
2022-10-23T06:10:52.098Z,14.20
2022-10-23T06:15:47.389Z,13.80
2022-10-23T06:18:25.405Z,13.10
2022-10-23T06:21:01.373Z,14.00
2022-10-23T06:23:34.561Z,15.00
2022-10-23T06:31:28.295Z,14.00
2022-10-23T06:33:58.615Z,13.80
2022-10-23T06:36:26.952Z,13.90
2022-10-23T06:57:44.059Z,13.50
2022-10-23T07:02:50.048Z,14.00
2022-10-23T07:05:17.727Z,13.30
2022-10-23T07:10:15.891Z,13.60
2022-10-23T07:12:51.126Z,15.60
2022-10-23T07:15:37.367Z,13.30
2022-10-23T07:30:59.661Z,14.60
2022-10-23T07:38:41.442Z,14.30
2022-10-23T07:43:39.796Z,15.80
2022-10-23T07:48:40.185Z,14.80
2022-10-23T07:51:12.368Z,14.90
2022-10-23T07:53:45.980Z,14.60
2022-10-23T07:56:31.941Z,16.20
2022-10-23T08:01:52.682Z,16.30
2022-10-23T08:11:53.552Z,15.30
2022-10-23T08:14:22.688Z,13.90
2022-10-23T08:21:46.273Z,13.90
2022-10-23T08:26:44.280Z,15.80
2022-10-23T08:29:12.566Z,15.30
2022-10-23T08:31:40.109Z,16.50
2022-10-23T08:36:53.289Z,15.80
2022-10-23T08:39:20.272Z,16.40
2022-10-23T08:42:17.204Z,17.00
2022-10-23T08:44:52.021Z,14.80
2022-10-23T08:47:31.137Z,15.70
2022-10-23T08:50:12.174Z,17.20
2022-10-23T08:55:12.278Z,16.00
2022-10-23T08:58:04.140Z,16.10
2022-10-23T09:03:02.876Z,17.30
2022-10-23T09:05:57.056Z,15.10
2022-10-23T09:08:54.553Z,16.30
2022-10-23T09:11:49.937Z,16.20
2022-10-23T09:14:41.926Z,16.20
2022-10-23T09:17:30.505Z,16.20
2022-10-23T09:20:06.105Z,14.80
2022-10-23T09:25:00.523Z,17.30
2022-10-23T09:29:55.973Z,16.00
2022-10-23T09:32:37.035Z,16.10
2022-10-23T09:35:05.712Z,16.10
2022-10-23T09:37:35.883Z,16.10
2022-10-23T09:40:11.857Z,16.30
2022-10-23T09:45:25.535Z,17.50
2022-10-23T09:48:14.383Z,16.10
2022-10-23T09:50:53.788Z,15.00
2022-10-23T09:53:40.155Z,16.10
2022-10-23T09:56:24.831Z,16.20
2022-10-23T09:59:10.852Z,16.20
2022-10-23T10:01:50.585Z,17.10
2022-10-23T10:04:41.337Z,16.20
2022-10-23T10:07:24.973Z,17.60
2022-10-23T10:09:54.329Z,16.30
2022-10-23T10:12:29.940Z,16.20
2022-10-23T10:15:20.335Z,16.40
2022-10-23T10:18:06.034Z,16.40
2022-10-23T10:20:45.923Z,17.80
2022-10-23T10:23:22.351Z,17.00
2022-10-23T10:26:14.032Z,16.30
2022-10-23T10:28:58.777Z,18.00
2022-10-23T10:31:53.218Z,16.70
2022-10-23T10:34:33.654Z,17.20
2022-10-23T10:37:26.770Z,15.50
2022-10-23T10:40:22.308Z,15.90
2022-10-23T10:42:58.601Z,16.00
2022-10-23T10:46:04.464Z,17.30
2022-10-23T10:48:55.460Z,17.10
2022-10-23T10:52:03.525Z,16.10
2022-10-23T10:57:00.169Z,17.30
2022-10-23T10:59:36.138Z,17.40
2022-10-23T11:02:28.603Z,17.50
2022-10-23T11:05:33.321Z,19.00
2022-10-23T11:08:07.542Z,17.70
2022-10-23T11:10:39.140Z,16.30
2022-10-23T11:15:42.649Z,17.90
2022-10-23T11:18:21.126Z,18.10
2022-10-23T11:20:59.164Z,17.80
2022-10-23T11:23:50.155Z,19.30
2022-10-23T11:26:35.431Z,18.90
2022-10-23T11:29:30.508Z,16.80
2022-10-23T11:32:29.224Z,18.60
2022-10-23T11:35:16.449Z,19.50
2022-10-23T11:42:41.120Z,19.80
2022-10-23T11:45:31.173Z,20.10
2022-10-23T11:48:19.705Z,21.00
2022-10-23T11:50:46.439Z,19.20
2022-10-23T11:53:28.188Z,20.70
2022-10-23T11:56:06.657Z,21.80
2022-10-23T11:58:56.518Z,20.90
2022-10-23T12:03:57.084Z,21.00
2022-10-23T12:06:28.932Z,22.30
2022-10-23T12:09:01.293Z,21.90
2022-10-23T12:11:42.150Z,21.90
2022-10-23T12:14:32.870Z,20.60
2022-10-23T12:17:00.443Z,20.50
2022-10-23T12:19:30.176Z,21.50
2022-10-23T12:22:01.982Z,19.80
2022-10-23T12:24:32.016Z,21.50
2022-10-23T12:27:12.725Z,21.70
2022-10-23T12:29:51.369Z,20.30
2022-10-23T12:32:34.409Z,21.30
2022-10-23T12:35:10.654Z,19.10
2022-10-23T12:38:06.253Z,20.00
2022-10-23T12:43:01.418Z,22.00
2022-10-23T12:50:26.492Z,20.30
2022-10-23T12:52:58.112Z,19.30
2022-10-23T12:55:28.788Z,20.30
2022-10-23T13:00:25.565Z,19.50
2022-10-23T13:03:04.044Z,20.10
2022-10-23T13:05:32.611Z,20.10
2022-10-23T13:08:01.121Z,20.10
2022-10-23T13:10:41.709Z,21.40
2022-10-23T13:13:13.728Z,18.80
2022-10-23T13:15:43.439Z,20.00
2022-10-23T13:18:14.002Z,21.10
2022-10-23T13:20:59.545Z,21.30
2022-10-23T13:23:32.198Z,20.50
2022-10-23T13:26:21.373Z,20.30
2022-10-23T13:33:48.286Z,19.40
2022-10-23T13:39:03.018Z,20.30
2022-10-23T13:41:39.292Z,21.40
2022-10-23T13:49:00.659Z,21.70
2022-10-23T13:51:29.253Z,21.60
2022-10-23T13:56:26.721Z,22.10
2022-10-23T13:58:54.214Z,19.90
2022-10-23T14:01:27.530Z,20.70
2022-10-23T14:03:56.205Z,21.90
2022-10-23T14:08:51.080Z,21.20
2022-10-23T14:11:19.329Z,19.90
2022-10-23T14:16:15.438Z,19.10
2022-10-23T14:21:12.376Z,20.90
2022-10-23T14:26:09.131Z,23.00
2022-10-23T14:28:36.445Z,25.30
2022-10-23T14:31:08.532Z,24.10
2022-10-23T14:33:35.394Z,24.30
2022-10-23T14:38:30.053Z,23.90
2022-10-23T14:45:52.001Z,22.40
2022-10-23T14:50:48.490Z,20.60
2022-10-23T14:53:15.694Z,20.60
2022-10-23T15:00:37.009Z,20.30
2022-10-23T15:03:03.896Z,19.40
2022-10-23T15:25:16.867Z,18.00
2022-10-23T15:30:12.776Z,19.90
2022-10-23T15:35:07.946Z,19.10
2022-10-23T15:47:24.144Z,20.20
2022-10-23T15:49:51.062Z,17.80
2022-10-23T15:59:39.890Z,17.60
2022-10-23T16:02:06.817Z,17.80
2022-10-23T16:07:02.109Z,17.60
2022-10-23T16:09:29.825Z,18.70
2022-10-23T16:14:23.925Z,17.40
2022-10-23T16:16:50.709Z,17.40
2022-10-23T16:29:09.470Z,17.20
2022-10-23T16:31:36.481Z,17.40
2022-10-23T16:34:05.345Z,17.40
2022-10-23T16:39:19.790Z,18.50
2022-10-23T16:42:05.659Z,17.80
2022-10-23T16:47:24.049Z,19.60
2022-10-23T16:59:39.992Z,17.00
2022-10-23T17:02:11.053Z,19.10
2022-10-23T17:07:05.896Z,19.70
2022-10-23T17:14:30.529Z,18.20
2022-10-23T17:17:01.053Z,16.80
2022-10-23T17:19:45.896Z,17.10
2022-10-23T17:22:14.891Z,17.00
2022-10-23T17:24:44.170Z,18.10
2022-10-23T17:27:13.145Z,18.10
2022-10-23T17:29:40.001Z,16.90
2022-10-23T17:32:07.119Z,16.60
2022-10-23T17:39:29.522Z,16.60
2022-10-23T17:41:57.144Z,16.60
2022-10-23T17:46:53.513Z,17.50
2022-10-23T17:49:20.869Z,18.30
2022-10-23T17:51:52.463Z,17.80
2022-10-23T17:59:15.985Z,17.90
2022-10-23T18:04:15.955Z,16.80
2022-10-23T18:06:45.790Z,18.30
2022-10-23T18:09:13.413Z,17.80
2022-10-23T18:11:46.937Z,17.80
2022-10-23T18:16:42.351Z,19.10
2022-10-23T18:19:10.482Z,17.30
2022-10-23T18:24:06.907Z,19.40
2022-10-23T18:31:37.450Z,18.10
2022-10-23T18:34:25.357Z,17.30
2022-10-23T18:36:54.575Z,18.00
2022-10-23T18:39:24.115Z,18.10
2022-10-23T18:41:54.026Z,17.60
2022-10-23T18:44:22.324Z,17.60
2022-10-23T18:49:18.458Z,17.40
2022-10-23T18:51:45.929Z,18.80
2022-10-23T18:54:14.788Z,18.10
2022-10-23T18:59:12.560Z,18.20
2022-10-23T19:01:39.591Z,16.90
2022-10-23T19:04:07.054Z,16.90
2022-10-23T19:06:36.134Z,18.10
2022-10-23T19:09:06.622Z,18.10
2022-10-23T19:14:00.828Z,16.90
2022-10-23T19:16:33.607Z,18.00
2022-10-23T19:19:06.798Z,19.10
2022-10-23T19:21:35.697Z,18.00
2022-10-23T19:24:06.788Z,17.90
2022-10-23T19:26:35.550Z,18.20
2022-10-23T19:43:46.272Z,18.60
2022-10-23T19:46:13.209Z,16.80
2022-10-23T19:48:44.938Z,17.50
2022-10-23T19:51:16.072Z,18.20
2022-10-23T19:56:11.767Z,18.80
2022-10-23T20:01:12.136Z,17.00
2022-10-23T20:03:40.844Z,17.30
2022-10-23T20:06:12.691Z,16.00
2022-10-23T20:08:40.454Z,17.20
2022-10-23T20:11:08.977Z,17.20
2022-10-23T20:21:01.349Z,16.30
2022-10-23T20:23:28.348Z,17.40
2022-10-23T20:28:22.536Z,16.30
2022-10-23T20:38:11.086Z,16.60
2022-10-23T20:40:37.991Z,18.10
2022-10-23T20:57:48.796Z,15.20
2022-10-23T21:10:10.158Z,16.60
2022-10-23T21:17:35.889Z,16.40
2022-10-23T21:22:30.593Z,16.30
2022-10-23T21:24:58.681Z,17.80
2022-10-23T21:29:52.704Z,16.90
2022-10-23T21:34:47.877Z,17.50
2022-10-23T21:37:15.103Z,16.60
2022-10-23T21:39:43.456Z,16.30
2022-10-23T21:42:11.773Z,14.90
2022-10-23T21:47:06.136Z,17.30
2022-10-23T21:56:55.093Z,16.80
2022-10-23T21:59:25.917Z,16.30
2022-10-23T22:01:55.310Z,14.90
2022-10-23T22:04:23.185Z,16.40
2022-10-23T22:06:50.192Z,17.10
2022-10-23T22:09:20.036Z,16.50
2022-10-23T22:11:52.237Z,16.60
2022-10-23T22:16:47.272Z,17.40
2022-10-23T22:19:16.333Z,16.20
2022-10-23T22:21:43.455Z,17.40
2022-10-23T22:26:44.237Z,16.40
2022-10-23T22:29:13.847Z,15.50
2022-10-23T22:31:44.192Z,16.80
2022-10-23T22:34:28.644Z,16.50
2022-10-23T22:37:09.223Z,18.00
2022-10-23T22:46:58.016Z,17.60
2022-10-23T22:49:24.921Z,16.90
2022-10-23T22:51:51.885Z,16.90
2022-10-23T22:54:18.722Z,17.70
2022-10-23T22:59:12.703Z,17.80
2022-10-23T23:01:42.677Z,16.40
2022-10-23T23:04:25.904Z,16.40
2022-10-23T23:09:26.572Z,15.00
2022-10-23T23:14:23.600Z,15.00
2022-10-23T23:16:52.845Z,17.50
2022-10-23T23:19:19.766Z,15.30
2022-10-23T23:34:02.697Z,14.80
2022-10-23T23:36:29.568Z,15.20
2022-10-23T23:38:57.641Z,16.20
2022-10-23T23:41:26.182Z,14.90
2022-10-23T23:43:57.705Z,15.10
2022-10-23T23:46:25.219Z,16.30
2022-10-23T23:48:52.073Z,17.80
2022-10-23T23:51:21.739Z,16.40
2022-10-23T23:56:16.154Z,17.40
